createdAt,value
2023-03-20T00:00:32.842Z,12.50
2023-03-20T00:03:02.369Z,12.50
2023-03-20T00:05:35.206Z,12.40
2023-03-20T00:08:08.857Z,12.40
2023-03-20T00:10:39.949Z,12.40
2023-03-20T00:13:14.857Z,12.40
2023-03-20T00:15:43.853Z,12.30
2023-03-20T00:18:29.841Z,12.30
2023-03-20T00:20:56.478Z,12.20
2023-03-20T00:23:23.098Z,12.20
2023-03-20T00:26:00.254Z,12.20
2023-03-20T00:28:41.881Z,12.20
2023-03-20T00:31:17.646Z,12.20
2023-03-20T00:33:44.926Z,12.10
2023-03-20T00:36:11.587Z,11.90
2023-03-20T00:38:38.208Z,12.10
2023-03-20T00:41:23.612Z,12.10
2023-03-20T00:43:56.390Z,12.10
2023-03-20T00:46:26.875Z,12.10
2023-03-20T00:48:54.315Z,11.90
2023-03-20T00:51:21.035Z,12.10
2023-03-20T00:53:51.887Z,12.00
2023-03-20T00:56:32.112Z,11.90
2023-03-20T00:59:00.022Z,11.80
2023-03-20T01:01:26.943Z,11.80
2023-03-20T01:03:53.625Z,11.80
2023-03-20T01:06:20.620Z,12.10
2023-03-20T01:08:58.994Z,11.80
2023-03-20T01:11:35.152Z,11.80
2023-03-20T01:14:08.882Z,11.70
2023-03-20T01:16:38.679Z,11.80
2023-03-20T01:19:05.578Z,11.60
2023-03-20T01:21:32.316Z,11.50
2023-03-20T01:24:07.980Z,11.40
2023-03-20T01:26:40.220Z,11.40
2023-03-20T01:29:18.001Z,11.40
2023-03-20T01:31:46.470Z,11.30
2023-03-20T01:34:13.232Z,11.20
2023-03-20T01:36:49.998Z,11.20
2023-03-20T01:39:21.669Z,11.20
2023-03-20T01:41:51.304Z,11.20
2023-03-20T01:44:27.754Z,11.10
2023-03-20T01:46:55.127Z,10.70
2023-03-20T01:50:06.089Z,11.10
2023-03-20T01:52:32.784Z,11.00
2023-03-20T01:55:03.317Z,11.00
2023-03-20T01:57:30.765Z,11.00
2023-03-20T02:00:05.212Z,11.00
2023-03-20T02:02:34.673Z,11.00
2023-03-20T02:05:06.666Z,11.00
2023-03-20T02:07:35.109Z,11.00
2023-03-20T02:10:03.219Z,10.90
2023-03-20T02:12:31.159Z,10.90
2023-03-20T02:14:58.049Z,10.90
2023-03-20T02:17:27.667Z,10.90
2023-03-20T02:20:05.908Z,10.90
2023-03-20T02:23:11.298Z,11.00
2023-03-20T02:26:13.734Z,10.90
2023-03-20T02:29:21.873Z,10.90
2023-03-20T02:32:27.539Z,11.00
2023-03-20T02:35:28.102Z,10.90
2023-03-20T02:38:19.085Z,10.90
2023-03-20T02:40:52.981Z,10.80
2023-03-20T02:43:25.450Z,11.00
2023-03-20T02:45:57.926Z,10.60
2023-03-20T02:48:33.022Z,10.90
2023-03-20T02:51:04.312Z,10.90
2023-03-20T02:53:42.659Z,10.90
2023-03-20T02:56:29.478Z,10.90
2023-03-20T02:59:06.948Z,11.00
2023-03-20T03:01:39.296Z,10.90
2023-03-20T03:04:23.027Z,10.90
2023-03-20T03:06:55.082Z,10.90
2023-03-20T03:09:26.353Z,10.90
2023-03-20T03:11:56.602Z,10.90
2023-03-20T03:14:35.292Z,10.90
2023-03-20T03:17:05.667Z,10.80
2023-03-20T03:19:41.165Z,11.00
2023-03-20T03:22:08.056Z,11.00
2023-03-20T03:24:46.457Z,10.90
2023-03-20T03:27:21.079Z,11.00
2023-03-20T03:29:53.188Z,11.00
2023-03-20T03:32:30.325Z,10.90
2023-03-20T03:35:04.826Z,11.00
2023-03-20T03:37:43.854Z,11.00
2023-03-20T03:40:19.317Z,11.00
2023-03-20T03:42:56.940Z,10.90
2023-03-20T03:45:30.337Z,10.90
2023-03-20T03:48:20.026Z,11.20
2023-03-20T03:50:51.396Z,11.00
2023-03-20T03:53:22.357Z,11.10
2023-03-20T03:55:57.962Z,10.90
2023-03-20T03:58:29.032Z,10.90
2023-03-20T04:00:58.962Z,11.00
2023-03-20T04:03:32.908Z,11.00
2023-03-20T04:06:05.858Z,11.00
2023-03-20T04:08:34.009Z,11.00
2023-03-20T04:11:04.355Z,11.00
2023-03-20T04:13:30.990Z,10.90
2023-03-20T04:16:10.966Z,11.00
2023-03-20T04:18:37.635Z,11.00
2023-03-20T04:21:07.645Z,11.00
2023-03-20T04:23:34.413Z,11.10
2023-03-20T04:26:11.449Z,11.20
2023-03-20T04:28:38.215Z,11.00
2023-03-20T04:31:05.308Z,11.00
2023-03-20T04:33:31.965Z,11.00
2023-03-20T04:36:01.606Z,11.10
2023-03-20T04:38:28.243Z,11.00
2023-03-20T04:40:57.947Z,11.10
2023-03-20T04:43:25.493Z,11.10
2023-03-20T04:46:01.153Z,11.10
2023-03-20T04:48:27.986Z,11.10
2023-03-20T04:50:54.723Z,11.10
2023-03-20T04:53:27.542Z,11.10
2023-03-20T04:56:01.921Z,11.20
2023-03-20T04:58:29.542Z,11.10
2023-03-20T05:00:59.283Z,11.20
2023-03-20T05:03:31.553Z,11.10
2023-03-20T05:05:58.674Z,11.00
2023-03-20T05:08:28.678Z,11.10
2023-03-20T05:10:55.317Z,11.10
2023-03-20T05:13:25.960Z,11.10
2023-03-20T05:15:53.250Z,11.00
2023-03-20T05:18:20.253Z,10.70
2023-03-20T05:20:49.433Z,11.00
2023-03-20T05:23:21.970Z,11.00
2023-03-20T05:25:48.558Z,11.10
2023-03-20T05:28:15.333Z,11.10
2023-03-20T05:30:42.056Z,11.00
2023-03-20T05:33:15.164Z,11.00
2023-03-20T05:35:47.609Z,11.00
2023-03-20T05:38:14.395Z,11.10
2023-03-20T05:40:52.337Z,11.10
2023-03-20T05:43:18.920Z,11.10
2023-03-20T05:45:47.206Z,11.10
2023-03-20T05:48:14.777Z,11.10
2023-03-20T05:50:44.379Z,11.00
2023-03-20T05:53:11.134Z,11.10
2023-03-20T05:55:46.793Z,11.10
2023-03-20T05:58:13.461Z,11.10
2023-03-20T06:00:40.232Z,11.20
2023-03-20T06:06:29.298Z,11.20
2023-03-20T06:09:43.070Z,11.10
2023-03-20T06:12:10.406Z,11.10
2023-03-20T06:14:37.060Z,11.10
2023-03-20T06:17:03.697Z,11.10
2023-03-20T06:19:40.118Z,11.00
2023-03-20T06:22:12.502Z,13.50
2023-03-20T06:24:41.949Z,10.90
2023-03-20T06:27:15.176Z,10.90
2023-03-20T06:29:41.716Z,11.00
2023-03-20T06:32:16.803Z,11.00
2023-03-20T06:34:47.718Z,10.70
2023-03-20T06:39:41.446Z,10.40
2023-03-20T06:45:05.971Z,10.30
2023-03-20T06:47:32.574Z,10.20
2023-03-20T06:49:59.839Z,10.30
2023-03-20T06:52:29.140Z,10.40
2023-03-20T06:55:08.949Z,10.00
2023-03-20T06:57:35.592Z,10.00
2023-03-20T07:00:07.178Z,10.00
2023-03-20T07:02:33.909Z,9.80
2023-03-20T07:05:08.429Z,12.50
2023-03-20T07:07:35.362Z,10.00
2023-03-20T07:10:03.754Z,10.00
2023-03-20T07:12:30.397Z,9.90
2023-03-20T07:15:07.197Z,9.90
2023-03-20T07:17:36.830Z,9.80
2023-03-20T07:20:10.789Z,9.90
2023-03-20T07:22:37.452Z,9.80
2023-03-20T07:25:11.250Z,9.60
2023-03-20T07:27:40.940Z,9.70
2023-03-20T07:30:08.883Z,9.70
2023-03-20T07:32:37.661Z,9.70
2023-03-20T07:35:04.963Z,9.60
2023-03-20T07:37:41.100Z,9.50
2023-03-20T07:40:09.038Z,9.50
2023-03-20T07:42:35.931Z,9.50
2023-03-20T07:45:03.341Z,9.50
2023-03-20T07:47:29.985Z,9.60
2023-03-20T07:50:08.523Z,9.50
2023-03-20T07:52:44.751Z,9.50
2023-03-20T07:55:11.994Z,9.40
2023-03-20T07:57:38.586Z,9.50
2023-03-20T08:00:09.792Z,9.50
2023-03-20T08:02:36.714Z,9.40
2023-03-20T08:05:03.476Z,9.50
2023-03-20T08:07:30.343Z,9.80
2023-03-20T08:09:57.157Z,9.70
2023-03-20T08:12:24.570Z,9.70
2023-03-20T08:14:51.540Z,9.70
2023-03-20T08:17:21.224Z,9.80
2023-03-20T08:19:54.946Z,9.80
2023-03-20T08:22:21.558Z,10.40
2023-03-20T08:24:48.347Z,10.20
2023-03-20T08:27:14.953Z,10.30
2023-03-20T08:29:44.934Z,10.40
2023-03-20T08:32:17.819Z,10.00
2023-03-20T08:34:44.746Z,10.20
2023-03-20T08:37:13.596Z,10.00
2023-03-20T08:39:40.598Z,10.00
2023-03-20T08:42:14.979Z,9.90
2023-03-20T08:44:45.342Z,9.90
2023-03-20T08:47:12.170Z,10.10
2023-03-20T08:49:39.002Z,10.20
2023-03-20T08:52:06.301Z,10.10
2023-03-20T08:54:33.602Z,10.60
2023-03-20T08:57:06.153Z,10.70
2023-03-20T09:02:27.914Z,11.10
2023-03-20T09:04:58.061Z,11.40
2023-03-20T09:07:42.943Z,11.50
2023-03-20T09:10:11.188Z,11.80
2023-03-20T09:12:43.742Z,12.00
2023-03-20T09:15:11.183Z,11.40
2023-03-20T09:17:44.572Z,11.50
2023-03-20T09:20:11.934Z,11.50
2023-03-20T09:22:40.407Z,11.70
2023-03-20T09:25:08.386Z,11.80
2023-03-20T09:27:44.591Z,12.00
2023-03-20T09:30:12.428Z,12.00
2023-03-20T09:32:48.238Z,11.90
2023-03-20T09:35:15.398Z,11.90
2023-03-20T09:37:44.964Z,11.90
2023-03-20T09:40:23.733Z,12.00
2023-03-20T09:42:57.218Z,12.10
2023-03-20T09:45:35.941Z,12.10
2023-03-20T09:48:07.049Z,12.10
2023-03-20T09:50:38.400Z,12.20
2023-03-20T09:53:10.009Z,12.20
2023-03-20T09:55:42.275Z,12.00
2023-03-20T09:58:18.715Z,12.20
2023-03-20T10:00:46.257Z,12.20
2023-03-20T10:03:19.523Z,12.10
2023-03-20T10:05:55.748Z,12.00
2023-03-20T10:08:28.079Z,12.00
2023-03-20T10:11:06.457Z,11.90
2023-03-20T10:14:02.176Z,11.90
2023-03-20T10:16:51.016Z,11.70
2023-03-20T10:19:23.409Z,11.90
2023-03-20T10:22:03.991Z,12.10
2023-03-20T10:24:35.825Z,11.70
2023-03-20T10:27:07.589Z,11.70
2023-03-20T10:29:45.512Z,11.60
2023-03-20T10:32:18.968Z,12.10
2023-03-20T10:35:09.126Z,12.20
2023-03-20T10:37:50.978Z,12.10
2023-03-20T10:40:26.049Z,12.10
2023-03-20T10:42:55.734Z,12.00
2023-03-20T10:45:37.086Z,12.00
2023-03-20T10:48:13.148Z,12.10
2023-03-20T10:50:44.844Z,12.20
2023-03-20T10:53:29.005Z,12.10
2023-03-20T10:55:59.596Z,12.30
2023-03-20T10:58:35.077Z,12.10
2023-03-20T11:01:02.870Z,12.30
2023-03-20T11:03:32.321Z,12.00
2023-03-20T11:06:09.662Z,12.10
2023-03-20T11:08:45.900Z,12.00
2023-03-20T11:11:12.472Z,12.20
2023-03-20T11:13:41.902Z,12.10
2023-03-20T11:16:18.925Z,11.90
2023-03-20T11:18:52.007Z,12.00
2023-03-20T11:21:23.065Z,12.00
2023-03-20T11:23:50.294Z,12.20
2023-03-20T11:26:35.900Z,12.20
2023-03-20T11:29:05.089Z,12.40
2023-03-20T11:31:35.538Z,12.50
2023-03-20T11:34:19.369Z,12.70
2023-03-20T11:37:09.211Z,12.60
2023-03-20T11:39:59.006Z,12.50
2023-03-20T11:42:27.907Z,12.60
2023-03-20T11:45:02.555Z,12.70
2023-03-20T11:47:33.451Z,12.60
2023-03-20T11:50:08.756Z,13.00
2023-03-20T11:52:43.475Z,12.80
2023-03-20T11:55:27.084Z,12.90
2023-03-20T11:57:57.520Z,12.60
2023-03-20T12:00:38.163Z,12.60
2023-03-20T12:03:36.779Z,12.40
2023-03-20T12:06:09.473Z,12.50
2023-03-20T12:08:42.807Z,12.60
2023-03-20T12:11:34.152Z,12.20
2023-03-20T12:14:13.645Z,12.40
2023-03-20T12:16:47.932Z,12.30
2023-03-20T12:19:18.839Z,12.40
2023-03-20T12:21:49.891Z,12.40
2023-03-20T12:24:36.456Z,12.20
2023-03-20T12:27:23.865Z,12.60
2023-03-20T12:29:55.699Z,12.30
2023-03-20T12:32:30.664Z,12.30
2023-03-20T12:35:02.154Z,12.40
2023-03-20T12:37:50.354Z,12.50
2023-03-20T12:40:19.771Z,12.60
2023-03-20T12:43:04.116Z,12.60
2023-03-20T12:45:38.282Z,12.50
2023-03-20T12:48:32.405Z,12.80
2023-03-20T12:51:13.798Z,12.40
2023-03-20T12:53:52.738Z,11.90
2023-03-20T12:56:30.263Z,12.40
2023-03-20T12:59:03.576Z,12.30
2023-03-20T13:01:32.368Z,12.30
2023-03-20T13:04:28.047Z,12.40
2023-03-20T13:06:58.672Z,12.60
2023-03-20T13:09:56.724Z,12.50
2023-03-20T13:12:34.585Z,12.60
2023-03-20T13:15:19.665Z,12.60
2023-03-20T13:17:53.197Z,12.70
2023-03-20T13:20:26.691Z,12.80
2023-03-20T13:23:10.437Z,12.50
2023-03-20T13:26:13.255Z,12.30
2023-03-20T13:28:53.028Z,12.50
2023-03-20T13:31:42.111Z,12.50
2023-03-20T13:34:20.680Z,12.50
2023-03-20T13:37:16.076Z,12.50
2023-03-20T13:39:51.932Z,12.80
2023-03-20T13:42:22.938Z,12.90
2023-03-20T13:45:09.458Z,12.80
2023-03-20T13:47:37.610Z,12.50
2023-03-20T13:50:27.773Z,12.60
2023-03-20T13:53:04.029Z,12.40
2023-03-20T13:55:45.619Z,12.30
2023-03-20T13:58:36.357Z,12.40
2023-03-20T14:01:08.111Z,12.60
2023-03-20T14:03:37.371Z,12.50
2023-03-20T14:06:18.048Z,12.50
2023-03-20T14:08:49.233Z,12.40
2023-03-20T14:11:34.803Z,12.60
2023-03-20T14:14:08.764Z,12.30
2023-03-20T14:16:36.167Z,12.30
2023-03-20T14:19:17.798Z,12.20
2023-03-20T14:21:48.959Z,12.20
2023-03-20T14:24:18.916Z,12.20
2023-03-20T14:26:58.837Z,12.00
2023-03-20T14:29:34.033Z,12.20
2023-03-20T14:32:37.058Z,12.20
2023-03-20T14:35:24.244Z,12.60
2023-03-20T14:38:23.696Z,12.00
2023-03-20T14:41:04.823Z,12.20
2023-03-20T14:43:45.224Z,12.00
2023-03-20T14:46:31.113Z,11.90
2023-03-20T14:49:26.911Z,12.00
2023-03-20T14:52:00.116Z,12.00
2023-03-20T14:54:34.593Z,11.90
2023-03-20T14:57:26.741Z,12.20
2023-03-20T14:59:57.474Z,12.00
2023-03-20T15:02:27.628Z,12.00
2023-03-20T15:04:55.266Z,12.30
2023-03-20T15:07:28.888Z,12.00
2023-03-20T15:09:59.344Z,12.00
2023-03-20T15:12:28.573Z,12.00
2023-03-20T15:14:57.918Z,11.90
2023-03-20T15:17:35.042Z,12.00
2023-03-20T15:20:06.465Z,12.00
2023-03-20T15:22:36.426Z,11.90
2023-03-20T15:25:04.025Z,11.40
2023-03-20T15:27:31.343Z,12.00
2023-03-20T15:30:05.296Z,12.00
2023-03-20T15:32:34.163Z,12.00
2023-03-20T15:35:03.732Z,12.00
2023-03-20T15:37:30.384Z,12.00
2023-03-20T15:39:59.596Z,12.10
2023-03-20T15:42:33.136Z,12.00
2023-03-20T15:45:13.890Z,12.00
2023-03-20T15:47:42.477Z,12.00
2023-03-20T15:50:13.312Z,12.00
2023-03-20T15:52:43.146Z,11.90
2023-03-20T15:55:25.109Z,11.90
2023-03-20T15:57:55.903Z,11.60
2023-03-20T16:00:31.107Z,11.90
2023-03-20T16:02:59.811Z,11.90
2023-03-20T16:05:28.777Z,11.80
2023-03-20T16:07:57.391Z,11.90
2023-03-20T16:10:30.936Z,11.90
2023-03-20T16:13:01.653Z,11.90
2023-03-20T16:15:30.939Z,11.80
2023-03-20T16:18:10.133Z,12.00
2023-03-20T16:20:41.314Z,11.90
2023-03-20T16:23:09.328Z,11.80
2023-03-20T16:25:40.726Z,11.90
2023-03-20T16:28:09.084Z,12.10
2023-03-20T16:30:36.323Z,12.00
2023-03-20T16:33:17.040Z,11.70
2023-03-20T16:35:49.272Z,11.90
2023-03-20T16:38:23.133Z,11.60
2023-03-20T16:40:54.290Z,11.60
2023-03-20T16:43:34.048Z,11.60
2023-03-20T16:46:07.123Z,11.60
2023-03-20T16:48:34.937Z,11.60
2023-03-20T16:51:16.221Z,11.50
2023-03-20T16:53:49.904Z,11.50
2023-03-20T16:56:21.809Z,13.00
2023-03-20T16:58:51.651Z,11.50
2023-03-20T17:01:20.888Z,11.50
2023-03-20T17:03:55.100Z,11.50
2023-03-20T17:06:41.848Z,11.50
2023-03-20T17:09:23.125Z,11.60
2023-03-20T17:11:56.470Z,11.50
2023-03-20T17:14:26.350Z,11.50
2023-03-20T17:16:57.999Z,11.50
2023-03-20T17:19:25.145Z,11.40
2023-03-20T17:21:51.842Z,11.40
2023-03-20T17:24:18.728Z,11.30
2023-03-20T17:26:51.795Z,11.30
2023-03-20T17:29:27.619Z,11.30
2023-03-20T17:31:54.487Z,11.30
2023-03-20T17:34:24.239Z,11.40
2023-03-20T17:36:51.976Z,11.30
2023-03-20T17:39:20.662Z,11.50
2023-03-20T17:41:48.143Z,11.30
2023-03-20T17:44:14.884Z,11.30
2023-03-20T17:47:00.568Z,11.30
2023-03-20T17:49:28.045Z,11.40
2023-03-20T17:51:55.440Z,11.40
2023-03-20T17:54:22.136Z,11.10
2023-03-20T17:56:57.480Z,11.30
2023-03-20T17:59:30.582Z,11.20
2023-03-20T18:01:58.008Z,11.20
2023-03-20T18:04:26.123Z,9.70
2023-03-20T18:06:52.858Z,11.20
2023-03-20T18:09:20.101Z,11.40
2023-03-20T18:11:46.830Z,11.20
2023-03-20T18:14:21.105Z,11.20
2023-03-20T18:16:47.780Z,11.50
2023-03-20T18:19:29.161Z,11.20
2023-03-20T18:21:56.971Z,11.20
2023-03-20T18:24:23.862Z,11.20
2023-03-20T18:26:51.430Z,11.20
2023-03-20T18:29:18.404Z,9.80
2023-03-20T18:31:47.701Z,11.20
2023-03-20T18:34:14.557Z,11.30
2023-03-20T18:36:51.184Z,11.20
2023-03-20T18:39:18.972Z,11.20
2023-03-20T18:41:49.125Z,12.20
2023-03-20T18:44:21.725Z,11.20
2023-03-20T18:46:48.642Z,11.10
2023-03-20T18:49:19.973Z,11.10
2023-03-20T18:51:47.785Z,11.10
2023-03-20T18:54:14.526Z,11.10
2023-03-20T18:56:42.286Z,11.10
2023-03-20T18:59:24.392Z,11.10
2023-03-20T19:01:56.581Z,11.10
2023-03-20T19:04:23.467Z,11.10
2023-03-20T19:06:50.836Z,11.10
2023-03-20T19:09:21.051Z,10.70
2023-03-20T19:11:48.062Z,10.70
2023-03-20T19:14:17.939Z,11.00
2023-03-20T19:16:46.138Z,11.00
2023-03-20T19:19:15.498Z,11.00
2023-03-20T19:21:45.444Z,10.90
2023-03-20T19:24:12.835Z,11.10
2023-03-20T19:26:47.691Z,11.00
2023-03-20T19:29:15.099Z,11.00
2023-03-20T19:31:45.396Z,11.00
2023-03-20T19:34:44.537Z,11.00
2023-03-20T19:37:02.179Z,11.20
2023-03-20T19:39:29.620Z,10.90
2023-03-20T19:42:15.416Z,11.10
2023-03-20T19:44:45.625Z,10.80
2023-03-20T19:47:12.831Z,10.90
2023-03-20T19:49:40.120Z,10.90
2023-03-20T19:52:20.491Z,11.50
2023-03-20T19:55:01.779Z,10.90
2023-03-20T19:57:32.834Z,10.80
2023-03-20T20:02:51.330Z,10.70
2023-03-20T20:05:31.788Z,10.90
2023-03-20T20:08:24.014Z,11.10
2023-03-20T20:10:50.155Z,10.80
2023-03-20T20:13:19.222Z,9.40
2023-03-20T20:15:48.348Z,10.80
2023-03-20T20:18:16.143Z,10.90
2023-03-20T20:21:34.570Z,11.00
2023-03-20T20:23:37.730Z,10.80
2023-03-20T20:26:07.576Z,10.80
2023-03-20T20:28:34.484Z,10.70
2023-03-20T20:31:07.240Z,10.90
2023-03-20T20:33:35.513Z,10.70
2023-03-20T20:37:08.355Z,10.80
2023-03-20T20:39:04.425Z,10.80
2023-03-20T20:41:38.043Z,10.50
2023-03-20T20:44:15.660Z,10.80
2023-03-20T20:46:43.502Z,10.80
2023-03-20T20:49:19.192Z,10.70
2023-03-20T20:51:53.199Z,10.80
2023-03-20T20:54:21.056Z,10.40
2023-03-20T20:56:54.905Z,10.70
2023-03-20T20:59:23.295Z,10.70
2023-03-20T21:01:56.672Z,9.90
2023-03-20T21:04:23.579Z,10.70
2023-03-20T21:07:11.888Z,10.70
2023-03-20T21:09:42.787Z,10.70
2023-03-20T21:12:34.837Z,10.70
2023-03-20T21:15:05.434Z,10.70
2023-03-20T21:17:33.712Z,10.00
2023-03-20T21:20:01.207Z,10.70
2023-03-20T21:22:32.330Z,10.70
2023-03-20T21:25:13.365Z,10.70
2023-03-20T21:27:46.302Z,10.60
2023-03-20T21:30:15.760Z,10.60
2023-03-20T21:32:44.240Z,10.70
2023-03-20T21:35:13.493Z,8.00
2023-03-20T21:40:37.244Z,10.60
2023-03-20T21:43:05.085Z,10.10
2023-03-20T21:49:19.063Z,10.00
2023-03-20T21:52:14.736Z,10.70
2023-03-20T21:54:56.889Z,10.50
2023-03-20T21:57:30.642Z,10.60
2023-03-20T22:02:32.173Z,10.90
2023-03-20T22:08:28.184Z,10.60
2023-03-20T22:11:31.598Z,10.40
2023-03-20T22:14:22.326Z,10.80
2023-03-20T22:17:25.866Z,10.60
2023-03-20T22:22:50.484Z,10.60
2023-03-20T22:31:10.740Z,10.50
2023-03-20T22:36:39.976Z,10.50
2023-03-20T22:39:19.066Z,10.40
2023-03-20T22:47:02.896Z,10.40
2023-03-20T22:49:35.957Z,10.40
2023-03-20T22:52:19.556Z,10.40
2023-03-20T22:54:49.928Z,10.30
2023-03-20T22:57:19.818Z,10.40
2023-03-20T23:00:00.155Z,10.60
2023-03-20T23:02:26.869Z,10.20
2023-03-20T23:04:54.277Z,10.30
2023-03-20T23:07:21.400Z,10.30
2023-03-20T23:09:48.162Z,10.30
2023-03-20T23:12:26.287Z,10.20
2023-03-20T23:14:56.994Z,10.20
2023-03-20T23:17:26.793Z,10.20
2023-03-20T23:20:08.703Z,10.00
2023-03-20T23:22:38.087Z,10.20
2023-03-20T23:25:18.688Z,10.30
2023-03-20T23:27:54.371Z,10.40
2023-03-20T23:30:23.424Z,9.60
2023-03-20T23:32:52.082Z,10.10
2023-03-20T23:35:34.032Z,10.10
2023-03-20T23:38:00.664Z,10.10
2023-03-20T23:40:27.327Z,10.00
2023-03-20T23:43:00.035Z,10.40
2023-03-20T23:45:27.194Z,10.00
2023-03-20T23:47:53.889Z,10.00
2023-03-20T23:50:30.055Z,10.00
2023-03-20T23:53:09.593Z,10.10
2023-03-20T23:55:50.206Z,10.00
2023-03-20T23:58:17.102Z,10.40
